Time;durP1;ratioP1;P1;durP2;ratioP2;P2;SDS_P1;SDS_P2;PMS_P1;PMS_P2;Temp;Humidity;BMP_temperature;BMP_pressure;BME280_temperature;BME280_humidity;BME280_pressure;Samples;Min_cycle;Max_cycle;Signal;HPM_P1;HPM_P2
2022/01/07 00:01:42;;;;;;;7.15;3.00;;;21.90;39.50;;;;;;5054433;28;20141;-56
2022/01/07 00:04:08;;;;;;;5.80;2.42;;;21.90;39.60;;;;;;5055612;28;20365;-56
2022/01/07 00:06:33;;;;;;;4.53;2.33;;;21.90;39.60;;;;;;5055090;28;20037;-55
2022/01/07 00:08:59;;;;;;;5.65;2.17;;;21.80;39.40;;;;;;5055266;28;20123;-56
2022/01/07 00:11:24;;;;;;;3.70;2.08;;;21.80;39.40;;;;;;5055057;28;20091;-56
2022/01/07 00:13:50;;;;;;;4.88;2.00;;;21.80;39.50;;;;;;5054801;28;20037;-56
2022/01/07 00:16:16;;;;;;;4.72;1.92;;;21.80;39.40;;;;;;5054885;28;20480;-56
2022/01/07 00:18:44;;;;;;;6.18;2.35;;;21.80;39.40;;;;;;5054926;28;20123;-56
2022/01/07 00:21:10;;;;;;;5.40;2.42;;;21.70;39.20;;;;;;5054834;28;20049;-56
2022/01/07 00:23:35;;;;;;;4.82;2.08;;;21.70;39.20;;;;;;5055278;28;20415;-56
2022/01/07 00:26:01;;;;;;;4.93;2.33;;;21.70;39.20;;;;;;5055002;28;20071;-56
2022/01/07 00:28:26;;;;;;;4.57;2.20;;;21.70;39.20;;;;;;5054578;28;20376;-55
2022/01/07 00:30:52;;;;;;;4.53;2.03;;;21.70;39.20;;;;;;5054686;28;20044;-56
2022/01/07 00:33:17;;;;;;;6.07;2.47;;;21.70;39.30;;;;;;5055116;28;20056;-56
2022/01/07 00:35:43;;;;;;;4.97;1.92;;;21.60;39.10;;;;;;5054296;28;20051;-56
2022/01/07 00:38:09;;;;;;;5.88;2.38;;;21.60;39.20;;;;;;5054513;28;20048;-55
2022/01/07 00:40:35;;;;;;;5.90;2.15;;;21.60;39.20;;;;;;5054510;28;20086;-56
2022/01/07 00:43:00;;;;;;;4.43;2.08;;;21.60;39.20;;;;;;5054019;28;20041;-55
2022/01/07 00:45:27;;;;;;;5.93;1.98;;;21.60;39.20;;;;;;5054327;28;20543;-56
2022/01/07 00:47:54;;;;;;;5.70;2.28;;;21.60;39.30;;;;;;5054616;28;20037;-56
2022/01/07 00:50:22;;;;;;;3.65;1.92;;;21.50;39.20;;;;;;5054974;28;20571;-56
2022/01/07 00:52:48;;;;;;;4.63;2.15;;;21.50;39.20;;;;;;5054264;28;20444;-55
2022/01/07 00:55:14;;;;;;;4.35;1.98;;;21.50;39.20;;;;;;5053006;28;20040;-56
2022/01/07 00:57:40;;;;;;;3.42;1.90;;;21.50;39.10;;;;;;5054105;28;20049;-56
2022/01/07 01:00:09;;;;;;;5.93;2.40;;;21.50;39.20;;;;;;5054085;28;20045;-55
2022/01/07 01:02:35;;;;;;;4.40;1.90;;;21.50;39.20;;;;;;5054043;28;20094;-56
2022/01/07 01:05:01;;;;;;;6.97;2.05;;;21.50;39.10;;;;;;5054343;28;20040;-55
2022/01/07 01:07:27;;;;;;;5.47;1.67;;;21.50;39.10;;;;;;5053597;28;20036;-56
2022/01/07 01:09:53;;;;;;;4.72;2.00;;;21.40;39.10;;;;;;5053918;28;20040;-56
2022/01/07 01:12:18;;;;;;;4.78;1.83;;;21.40;39.10;;;;;;5053853;28;20094;-55
2022/01/07 01:14:44;;;;;;;6.80;2.38;;;21.40;39.20;;;;;;5053754;28;20051;-56
2022/01/07 01:17:10;;;;;;;6.15;2.00;;;21.40;39.10;;;;;;5053707;28;20132;-56
2022/01/07 01:19:37;;;;;;;4.60;1.90;;;21.40;39.20;;;;;;5053676;28;20437;-56
2022/01/07 01:22:04;;;;;;;5.45;2.20;;;21.40;39.10;;;;;;5053594;28;20124;-56
2022/01/07 01:24:29;;;;;;;5.80;2.00;;;21.40;39.20;;;;;;5053752;28;20126;-55
2022/01/07 01:26:55;;;;;;;4.55;2.22;;;21.30;39.10;;;;;;5053445;28;20445;-55
2022/01/07 01:29:22;;;;;;;4.63;2.15;;;21.30;39.10;;;;;;5053665;28;20045;-56
2022/01/07 01:31:48;;;;;;;4.35;1.88;;;21.30;39.20;;;;;;5054158;28;20124;-55
2022/01/07 01:34:14;;;;;;;3.47;1.77;;;21.30;39.20;;;;;;5053498;28;20048;-55
2022/01/07 01:36:40;;;;;;;6.57;2.35;;;21.30;39.40;;;;;;5054104;28;20063;-56
2022/01/07 01:39:05;;;;;;;4.25;2.00;;;21.30;39.40;;;;;;5053806;28;20033;-55
2022/01/07 01:41:31;;;;;;;2.90;1.92;;;21.30;39.60;;;;;;5053415;28;20122;-55
2022/01/07 01:43:57;;;;;;;3.55;1.88;;;21.30;39.70;;;;;;5054143;28;20121;-56
2022/01/07 01:46:23;;;;;;;7.07;2.15;;;21.30;39.80;;;;;;5053323;28;20503;-55
2022/01/07 01:48:49;;;;;;;4.50;1.88;;;21.20;39.80;;;;;;5053390;28;20032;-56
2022/01/07 01:51:15;;;;;;;3.03;1.83;;;21.20;39.80;;;;;;5053352;28;20048;-56
2022/01/07 01:53:40;;;;;;;5.10;1.90;;;21.20;39.80;;;;;;5052692;28;20052;-56
2022/01/07 01:56:07;;;;;;;3.67;2.08;;;21.20;39.80;;;;;;5052922;28;20500;-56
2022/01/07 01:58:33;;;;;;;4.18;2.35;;;21.20;39.80;;;;;;5053284;28;20045;-56
2022/01/07 02:00:59;;;;;;;5.25;2.13;;;21.20;39.80;;;;;;5052220;28;20051;-56
2022/01/07 02:03:24;;;;;;;5.88;2.28;;;21.20;39.90;;;;;;5053066;28;20080;-56
2022/01/07 02:05:50;;;;;;;4.95;2.00;;;21.20;39.80;;;;;;5052053;28;20448;-56
2022/01/07 02:08:16;;;;;;;3.53;1.80;;;21.20;39.80;;;;;;5053648;28;20045;-55
2022/01/07 02:10:42;;;;;;;4.55;2.00;;;21.20;39.90;;;;;;5053679;28;20049;-56
2022/01/07 02:13:08;;;;;;;5.35;1.95;;;21.20;39.90;;;;;;5053180;28;20041;-56
2022/01/07 02:15:34;;;;;;;6.38;2.28;;;21.10;39.80;;;;;;5053585;28;20044;-56
2022/01/07 02:17:59;;;;;;;5.13;1.80;;;21.20;39.90;;;;;;5053104;28;20040;-56
2022/01/07 02:20:28;;;;;;;4.35;1.88;;;21.20;39.90;;;;;;5051946;28;20075;-56
2022/01/07 02:22:55;;;;;;;5.00;2.00;;;21.10;39.80;;;;;;5085184;28;20423;-56
2022/01/07 02:25:21;;;;;;;5.90;2.22;;;21.10;39.80;;;;;;5052677;28;20393;-56
2022/01/07 02:27:47;;;;;;;3.22;1.73;;;21.10;39.80;;;;;;5053004;28;20036;-55
2022/01/07 02:30:17;;;;;;;4.20;2.33;;;21.10;39.80;;;;;;5053006;28;20041;-56
2022/01/07 02:32:43;;;;;;;7.20;2.28;;;21.10;39.80;;;;;;5052998;28;20087;-56
2022/01/07 02:35:09;;;;;;;4.28;1.90;;;21.00;39.80;;;;;;5053594;28;20041;-56
2022/01/07 02:37:36;;;;;;;3.60;1.73;;;21.00;39.90;;;;;;5053020;28;20113;-56
2022/01/07 02:40:03;;;;;;;3.47;1.77;;;21.10;39.80;;;;;;5051604;28;20091;-56
2022/01/07 02:42:29;;;;;;;2.72;1.65;;;21.00;39.80;;;;;;5053135;28;20049;-56
2022/01/07 02:44:54;;;;;;;4.97;1.90;;;21.00;39.90;;;;;;5052790;28;20047;-56
2022/01/07 02:47:21;;;;;;;4.43;1.83;;;21.00;39.90;;;;;;5085484;28;20049;-56
2022/01/07 02:49:47;;;;;;;3.58;1.77;;;21.00;39.80;;;;;;5051692;28;20452;-56
2022/01/07 02:52:13;;;;;;;3.20;1.45;;;21.00;39.70;;;;;;5052728;28;20048;-56
2022/01/07 02:54:39;;;;;;;2.72;2.08;;;20.90;39.70;;;;;;5052790;28;20041;-56
2022/01/07 02:57:04;;;;;;;3.60;1.77;;;20.90;39.70;;;;;;5086076;28;20052;-56
2022/01/07 02:59:30;;;;;;;1.88;1.67;;;20.90;39.70;;;;;;5052372;28;20052;-56
2022/01/07 03:01:56;;;;;;;3.83;1.83;;;20.90;39.70;;;;;;5052551;28;20037;-55
2022/01/07 03:04:23;;;;;;;3.25;2.08;;;20.90;39.70;;;;;;5051519;28;20546;-55
2022/01/07 03:06:49;;;;;;;4.65;1.95;;;20.90;39.70;;;;;;5055390;28;20036;-56
2022/01/07 03:09:14;;;;;;;4.78;1.50;;;20.90;39.70;;;;;;5056518;28;20095;-56
2022/01/07 03:11:40;;;;;;;3.40;1.90;;;20.90;39.70;;;;;;5056025;28;20041;-56
2022/01/07 03:14:06;;;;;;;4.65;1.92;;;20.90;39.70;;;;;;5056812;28;20036;-56
2022/01/07 03:16:32;;;;;;;3.97;1.95;;;20.90;39.60;;;;;;5056156;28;20349;-56
2022/01/07 03:18:58;;;;;;;2.13;1.58;;;20.90;39.70;;;;;;5056220;28;20055;-56
2022/01/07 03:21:23;;;;;;;4.20;1.80;;;20.80;39.60;;;;;;5056593;28;20504;-56
2022/01/07 03:23:49;;;;;;;2.63;1.80;;;20.80;39.60;;;;;;5057218;28;20091;-56
2022/01/07 03:26:15;;;;;;;3.10;1.92;;;20.80;39.60;;;;;;5055981;28;20037;-55
2022/01/07 03:28:40;;;;;;;3.75;1.90;;;20.80;39.50;;;;;;5055995;28;20102;-56
2022/01/07 03:31:07;;;;;;;5.10;1.83;;;20.80;39.50;;;;;;5055620;28;20530;-56
2022/01/07 03:33:33;;;;;;;3.80;1.63;;;20.80;39.60;;;;;;5054643;28;20044;-56
2022/01/07 03:35:58;;;;;;;3.17;1.75;;;20.80;39.60;;;;;;5055811;28;20040;-56
2022/01/07 03:38:24;;;;;;;3.45;1.60;;;20.80;39.60;;;;;;5055791;28;20047;-56
2022/01/07 03:40:50;;;;;;;3.40;1.50;;;20.70;39.60;;;;;;5055762;28;20048;-56
2022/01/07 03:43:16;;;;;;;2.72;1.60;;;20.70;39.50;;;;;;5056231;28;20051;-56
2022/01/07 03:45:42;;;;;;;2.65;1.67;;;20.70;39.50;;;;;;5056083;28;20408;-56
2022/01/07 03:48:08;;;;;;;2.30;1.63;;;20.70;39.60;;;;;;5056130;28;20037;-56
2022/01/07 03:50:33;;;;;;;4.53;1.65;;;20.70;39.60;;;;;;5055589;28;20048;-56
2022/01/07 03:53:00;;;;;;;2.42;1.70;;;20.70;39.60;;;;;;5056056;28;20045;-56
2022/01/07 03:55:28;;;;;;;2.20;1.63;;;20.70;39.60;;;;;;5055684;28;20461;-55
2022/01/07 03:57:54;;;;;;;2.83;1.50;;;20.70;39.60;;;;;;5056179;28;20041;-55
2022/01/07 04:00:26;;;;;;;3.50;1.52;;;20.70;39.60;;;;;;5055127;28;20358;-56
2022/01/07 04:02:52;;;;;;;5.32;1.60;;;20.70;39.50;;;;;;5055936;28;20045;-56
2022/01/07 04:05:22;;;;;;;2.55;1.45;;;20.70;39.50;;;;;;5055096;28;20041;-56
2022/01/07 04:07:49;;;;;;;4.25;1.98;;;20.60;39.50;;;;;;5056129;28;20460;-56
2022/01/07 04:10:14;;;;;;;3.13;1.83;;;20.60;39.50;;;;;;5055109;28;20033;-56
2022/01/07 04:12:40;;;;;;;5.60;1.50;;;20.60;39.50;;;;;;5055150;28;20093;-56
2022/01/07 04:15:09;;;;;;;3.70;1.60;;;20.60;39.50;;;;;;5055087;28;20040;-56
2022/01/07 04:17:40;;;;;;;2.22;1.40;;;20.60;39.50;;;;;;5054129;28;20033;-55
2022/01/07 04:20:08;;;;;;;5.32;1.77;;;20.60;39.60;;;;;;5055027;28;20045;-55
2022/01/07 04:22:35;;;;;;;2.15;1.60;;;20.60;39.60;;;;;;5055824;28;20364;-55
2022/01/07 04:25:03;;;;;;;3.65;1.33;;;20.60;39.50;;;;;;5055281;28;20055;-56
2022/01/07 04:27:29;;;;;;;2.42;1.55;;;20.60;39.50;;;;;;5054826;28;20122;-55
2022/01/07 04:29:54;;;;;;;2.58;1.40;;;20.60;39.50;;;;;;5054983;28;20045;-55
2022/01/07 04:32:20;;;;;;;2.58;1.60;;;20.60;39.50;;;;;;5055289;28;20053;-56
2022/01/07 04:34:45;;;;;;;2.22;1.38;;;20.50;39.50;;;;;;5054461;28;20036;-55
2022/01/07 04:37:11;;;;;;;5.72;1.70;;;20.50;39.50;;;;;;5054646;28;20037;-56
2022/01/07 04:39:37;;;;;;;1.55;1.25;;;20.50;39.50;;;;;;5054577;28;20460;-56
2022/01/07 04:42:03;;;;;;;4.15;1.70;;;20.50;39.50;;;;;;5054590;28;20450;-55
2022/01/07 04:44:28;;;;;;;2.15;1.27;;;20.50;39.50;;;;;;5054461;28;20036;-55
2022/01/07 04:46:54;;;;;;;3.65;1.50;;;20.50;39.50;;;;;;5054515;28;20474;-55
2022/01/07 04:49:19;;;;;;;2.17;1.60;;;20.50;39.40;;;;;;5054438;28;20044;-56
2022/01/07 04:51:45;;;;;;;2.58;1.45;;;20.50;39.50;;;;;;5054444;28;20062;-58
2022/01/07 04:54:10;;;;;;;2.28;1.60;;;20.50;39.50;;;;;;5054389;28;20517;-56
2022/01/07 04:56:36;;;;;;;2.20;1.35;;;20.50;39.50;;;;;;5054381;28;20051;-56
2022/01/07 04:59:02;;;;;;;2.30;1.58;;;20.50;39.40;;;;;;5054796;28;20036;-55
2022/01/07 05:01:28;;;;;;;2.08;1.35;;;20.40;40.10;;;;;;5054685;28;20047;-56
2022/01/07 05:03:53;;;;;;;3.05;1.30;;;20.40;39.40;;;;;;5054168;28;20116;-55
2022/01/07 05:08:50;;;;;;;2.17;1.35;;;20.40;39.40;;;;;;5054384;28;20132;-55
2022/01/07 05:11:15;;;;;;;1.58;1.20;;;20.40;39.50;;;;;;5053988;28;20043;-56
2022/01/07 05:13:41;;;;;;;1.50;1.13;;;20.40;39.50;;;;;;5053877;28;20041;-56
2022/01/07 05:16:07;;;;;;;2.55;1.00;;;20.40;39.50;;;;;;5054512;28;20345;-55
2022/01/07 05:18:32;;;;;;;1.98;1.40;;;20.40;39.60;;;;;;5054112;28;20036;-56
2022/01/07 05:20:58;;;;;;;2.17;1.20;;;20.40;39.50;;;;;;5053889;28;20041;-56
2022/01/07 05:23:23;;;;;;;1.80;1.20;;;20.40;39.50;;;;;;5054187;28;20384;-55
2022/01/07 05:25:49;;;;;;;1.85;1.23;;;20.40;39.50;;;;;;5053615;28;20084;-56
2022/01/07 05:28:15;;;;;;;1.80;1.33;;;20.40;39.60;;;;;;5053681;28;20114;-55
2022/01/07 05:30:40;;;;;;;1.90;1.20;;;20.40;39.50;;;;;;5053714;28;20411;-56
2022/01/07 05:33:06;;;;;;;1.70;1.13;;;20.30;39.50;;;;;;5053343;28;20059;-56
2022/01/07 05:35:32;;;;;;;2.78;1.30;;;20.30;39.60;;;;;;5053288;28;20068;-55
2022/01/07 05:37:57;;;;;;;1.27;1.17;;;20.30;39.50;;;;;;5054064;28;20063;-56
2022/01/07 05:40:23;;;;;;;2.65;1.38;;;20.30;39.60;;;;;;5053184;28;20098;-55
2022/01/07 05:42:48;;;;;;;2.55;1.30;;;20.30;39.50;;;;;;5053552;28;20049;-56
2022/01/07 05:45:14;;;;;;;2.90;1.45;;;20.30;39.50;;;;;;5052267;28;20036;-57
2022/01/07 05:47:39;;;;;;;1.70;1.13;;;20.30;39.50;;;;;;5053871;28;20380;-55
2022/01/07 05:50:06;;;;;;;1.95;1.35;;;20.30;39.50;;;;;;5053380;28;20422;-55
2022/01/07 05:52:31;;;;;;;1.48;0.90;;;20.30;39.50;;;;;;5053281;28;20083;-55
2022/01/07 05:54:57;;;;;;;1.45;1.35;;;20.30;39.50;;;;;;5053307;28;20037;-55
2022/01/07 05:57:22;;;;;;;1.55;0.93;;;20.30;39.50;;;;;;5053728;28;20048;-56
2022/01/07 05:59:48;;;;;;;2.00;1.20;;;20.30;39.50;;;;;;5053463;28;20377;-56
2022/01/07 06:02:13;;;;;;;2.10;1.10;;;20.30;39.60;;;;;;5053453;28;20037;-56
2022/01/07 06:04:39;;;;;;;0.70;0.70;;;20.20;39.90;;;;;;5051985;28;20072;-56
2022/01/07 06:07:04;;;;;;;1.65;0.90;;;20.30;40.70;;;;;;5052219;28;20037;-56
2022/01/07 06:09:30;;;;;;;1.15;0.90;;;20.20;39.90;;;;;;5052969;28;20045;-55
2022/01/07 06:11:55;;;;;;;1.10;0.82;;;20.30;40.70;;;;;;5053492;28;20040;-56
2022/01/07 06:14:23;;;;;;;2.03;1.00;;;20.30;40.00;;;;;;5052919;28;20068;-56
2022/01/07 06:16:48;;;;;;;1.13;1.00;;;20.30;40.10;;;;;;5052999;28;20134;-56
2022/01/07 06:19:14;;;;;;;2.10;0.90;;;20.30;40.60;;;;;;5053020;28;20461;-56
2022/01/07 06:21:39;;;;;;;1.40;1.15;;;20.30;40.90;;;;;;5052267;28;20361;-57
2022/01/07 06:24:05;;;;;;;2.78;1.17;;;20.30;41.70;;;;;;5052897;28;20051;-56
2022/01/07 06:26:31;;;;;;;2.80;1.10;;;20.30;41.30;;;;;;5051736;28;20129;-56
2022/01/07 06:28:57;;;;;;;1.00;0.90;;;20.30;41.30;;;;;;5053175;28;20119;-56
2022/01/07 06:31:23;;;;;;;1.83;0.95;;;20.40;42.30;;;;;;5052967;28;20040;-56
2022/01/07 06:33:48;;;;;;;3.67;1.35;;;20.40;41.60;;;;;;5053394;28;20468;-56
2022/01/07 06:36:14;;;;;;;4.82;1.05;;;20.40;41.60;;;;;;5052687;28;20037;-56
2022/01/07 06:38:39;;;;;;;2.00;1.00;;;20.40;41.70;;;;;;5051271;28;20037;-56
2022/01/07 06:41:05;;;;;;;2.13;1.08;;;20.40;42.00;;;;;;5054943;28;20033;-47
2022/01/07 06:43:31;;;;;;;1.45;1.08;;;20.40;41.90;;;;;;5056737;28;20127;-48
2022/01/07 06:45:56;;;;;;;2.33;1.00;;;20.40;41.90;;;;;;5056789;28;20041;-47
2022/01/07 06:48:22;;;;;;;1.40;0.95;;;20.40;42.00;;;;;;5057474;28;20382;-57
2022/01/07 06:50:47;;;;;;;1.15;0.98;;;20.40;42.00;;;;;;5056584;28;20520;-56
2022/01/07 06:53:13;;;;;;;1.95;0.80;;;20.40;42.00;;;;;;5056563;28;20052;-57
2022/01/07 06:55:39;;;;;;;1.85;0.85;;;20.40;41.90;;;;;;5056623;28;20048;-56
2022/01/07 06:58:04;;;;;;;1.13;0.88;;;20.40;42.00;;;;;;5056977;28;20524;-57
2022/01/07 07:00:30;;;;;;;1.45;0.82;;;20.40;42.20;;;;;;5055485;28;20041;-57
2022/01/07 07:02:56;;;;;;;2.22;0.90;;;20.40;42.20;;;;;;5056124;28;20037;-57
2022/01/07 07:05:24;;;;;;;1.52;1.00;;;20.40;42.10;;;;;;5056727;28;20346;-57
2022/01/07 07:07:50;;;;;;;1.73;0.85;;;20.40;42.30;;;;;;5056203;28;20041;-57
2022/01/07 07:10:15;;;;;;;1.17;0.93;;;20.40;42.20;;;;;;5056265;28;20056;-56
2022/01/07 07:12:41;;;;;;;0.85;0.70;;;20.40;42.10;;;;;;5055901;28;20116;-56
2022/01/07 07:15:07;;;;;;;1.88;1.20;;;20.50;42.20;;;;;;5056102;28;20041;-57
2022/01/07 07:17:32;;;;;;;2.13;1.00;;;20.40;42.00;;;;;;5056163;28;20064;-56
2022/01/07 07:19:58;;;;;;;2.83;0.95;;;20.50;42.00;;;;;;5056570;28;20052;-56
2022/01/07 07:22:24;;;;;;;1.40;0.90;;;20.50;42.00;;;;;;5055901;28;20056;-57
2022/01/07 07:24:49;;;;;;;1.70;0.90;;;20.40;41.90;;;;;;5055957;28;20461;-56
2022/01/07 07:27:15;;;;;;;11.95;1.30;;;20.50;41.90;;;;;;5056144;28;20045;-57
2022/01/07 07:29:40;;;;;;;1.67;0.90;;;20.50;41.90;;;;;;5055935;28;20051;-57
2022/01/07 07:32:09;;;;;;;1.70;0.88;;;20.50;42.10;;;;;;5055970;28;20044;-57
2022/01/07 07:37:03;;;;;;;1.05;0.80;;;20.50;41.80;;;;;;5055927;28;20132;-57
2022/01/07 07:39:28;;;;;;;1.27;0.80;;;20.50;41.80;;;;;;5056396;28;20163;-57
2022/01/07 07:41:54;;;;;;;1.92;1.00;;;20.50;41.80;;;;;;5056290;28;20045;-57
2022/01/07 07:44:20;;;;;;;1.08;0.98;;;20.50;41.60;;;;;;5088600;28;20032;-57
2022/01/07 07:46:45;;;;;;;0.80;0.70;;;20.50;41.60;;;;;;5054778;28;20133;-57
2022/01/07 07:49:11;;;;;;;1.08;0.90;;;20.50;41.60;;;;;;5054308;28;20403;-57
2022/01/07 07:51:37;;;;;;;1.30;0.93;;;20.50;41.60;;;;;;5055373;28;20043;-57
2022/01/07 07:54:04;;;;;;;1.10;1.00;;;20.50;41.60;;;;;;5055399;28;20072;-57
2022/01/07 07:56:31;;;;;;;1.25;1.00;;;20.50;41.50;;;;;;5056104;28;20041;-57
2022/01/07 07:58:59;;;;;;;0.98;0.88;;;20.50;41.50;;;;;;5055368;28;20029;-57
2022/01/07 08:01:25;;;;;;;1.10;0.98;;;20.60;41.50;;;;;;5054512;28;20330;-56
2022/01/07 08:03:51;;;;;;;1.15;1.00;;;20.50;41.40;;;;;;5055231;28;20087;-57
2022/01/07 08:06:17;;;;;;;1.63;1.17;;;20.60;41.50;;;;;;5055280;28;20076;-57
2022/01/07 08:08:42;;;;;;;1.20;0.95;;;20.50;41.40;;;;;;5054494;28;20060;-56
2022/01/07 08:11:11;;;;;;;1.73;1.17;;;20.60;41.40;;;;;;5055186;28;20041;-57
2022/01/07 08:16:23;;;;;;;1.15;1.00;;;20.60;41.40;;;;;;5055149;28;20059;-56
2022/01/07 08:18:53;;;;;;;2.85;0.93;;;20.60;41.40;;;;;;5053870;28;20087;-57
2022/01/07 08:21:21;;;;;;;2.42;1.20;;;20.60;41.40;;;;;;5055272;28;20047;-57
2022/01/07 08:23:47;;;;;;;3.05;1.02;;;20.60;41.40;;;;;;5055171;28;20049;-57
2022/01/07 08:26:16;;;;;;;1.33;1.10;;;20.60;41.40;;;;;;5054810;28;20037;-57
2022/01/07 08:28:46;;;;;;;1.23;0.95;;;20.60;41.40;;;;;;5054805;28;20041;-57
2022/01/07 08:31:26;;;;;;;1.92;1.40;;;20.60;41.60;;;;;;5054904;28;20077;-57
2022/01/07 08:36:36;;;;;;;2.47;1.25;;;20.60;41.60;;;;;;5054884;28;20483;-56
2022/01/07 08:39:06;;;;;;;2.55;1.10;;;20.60;41.70;;;;;;5055182;28;20107;-57
2022/01/07 08:41:32;;;;;;;4.50;1.83;;;20.60;41.80;;;;;;5087158;28;20078;-57
2022/01/07 08:43:58;;;;;;;2.20;1.27;;;20.60;41.90;;;;;;5055015;28;20445;-57
2022/01/07 08:46:24;;;;;;;2.60;1.60;;;20.60;41.90;;;;;;5054623;28;20041;-57
2022/01/07 08:48:50;;;;;;;1.65;1.40;;;20.70;42.00;;;;;;5054481;28;20045;-57
2022/01/07 08:51:16;;;;;;;2.45;1.48;;;20.70;42.10;;;;;;5054369;28;20047;-57
2022/01/07 08:53:42;;;;;;;2.50;1.38;;;20.70;42.10;;;;;;5054371;28;20056;-57
2022/01/07 08:56:08;;;;;;;2.88;1.50;;;20.70;42.20;;;;;;5054316;28;20480;-57
2022/01/07 08:58:34;;;;;;;3.58;1.60;;;20.70;42.20;;;;;;5052949;28;20492;-57
2022/01/07 09:01:00;;;;;;;5.78;1.75;;;20.70;42.30;;;;;;5054658;28;20037;-57
2022/01/07 09:03:26;;;;;;;2.67;1.55;;;20.70;42.40;;;;;;5053888;28;20044;-57
2022/01/07 09:05:52;;;;;;;2.72;1.55;;;20.70;42.40;;;;;;5052252;28;20041;-57
2022/01/07 09:08:18;;;;;;;2.90;1.42;;;20.70;42.50;;;;;;5086225;28;20040;-57
2022/01/07 09:10:44;;;;;;;2.50;1.52;;;20.70;42.40;;;;;;5053830;28;20037;-57
2022/01/07 09:13:11;;;;;;;3.90;1.50;;;20.70;42.50;;;;;;5053713;28;20082;-57
2022/01/07 09:15:37;;;;;;;1.92;1.48;;;20.70;42.50;;;;;;5053927;28;20037;-57
2022/01/07 09:18:14;;;;;;;2.88;1.70;;;20.70;42.50;;;;;;5054576;28;20045;-57
2022/01/07 09:20:42;;;;;;;3.58;1.70;;;20.70;42.60;;;;;;5054854;28;20045;-57
2022/01/07 09:23:09;;;;;;;2.42;1.50;;;20.80;42.70;;;;;;5052557;28;20063;-57
2022/01/07 09:25:35;;;;;;;2.97;1.50;;;20.80;42.80;;;;;;5053826;28;20044;-56
2022/01/07 09:28:01;;;;;;;3.28;1.50;;;20.80;42.70;;;;;;5054330;28;20055;-58
2022/01/07 09:30:26;;;;;;;2.45;1.65;;;20.80;42.80;;;;;;5054112;28;20119;-57
2022/01/07 09:32:52;;;;;;;5.32;1.80;;;20.80;42.80;;;;;;5052711;28;20097;-56
2022/01/07 09:35:18;;;;;;;4.38;2.00;;;20.80;42.80;;;;;;5053880;28;20127;-56
2022/01/07 09:37:44;;;;;;;3.70;1.80;;;20.80;42.90;;;;;;5053350;28;20037;-56
2022/01/07 09:40:11;;;;;;;2.33;1.58;;;20.80;42.80;;;;;;5053756;28;20037;-56
2022/01/07 09:42:37;;;;;;;8.52;1.40;;;20.80;42.90;;;;;;5053454;28;20041;-56
2022/01/07 09:45:03;;;;;;;4.43;2.10;;;20.80;43.00;;;;;;5053675;28;20040;-56
2022/01/07 09:47:29;;;;;;;2.97;1.75;;;20.80;43.10;;;;;;5053386;28;20063;-56
2022/01/07 09:49:55;;;;;;;3.55;1.98;;;20.80;43.20;;;;;;5053324;28;20037;-56
2022/01/07 09:52:21;;;;;;;4.10;1.98;;;20.80;43.30;;;;;;5053567;28;20044;-56
2022/01/07 09:54:47;;;;;;;2.72;1.70;;;20.80;43.40;;;;;;5053526;28;20041;-57
2022/01/07 09:57:14;;;;;;;3.50;1.50;;;20.80;43.40;;;;;;5053538;28;20063;-57
2022/01/07 09:59:40;;;;;;;2.78;1.77;;;20.90;43.60;;;;;;5053256;28;20109;-57
2022/01/07 10:02:06;;;;;;;3.50;2.13;;;20.90;43.70;;;;;;5053697;28;20413;-57
2022/01/07 10:04:42;;;;;;;3.15;2.00;;;20.90;43.90;;;;;;5053216;28;20411;-57
2022/01/07 10:07:22;;;;;;;5.72;2.13;;;20.90;44.00;;;;;;5053777;28;20352;-57
2022/01/07 10:10:08;;;;;;;7.43;2.27;;;20.90;44.10;;;;;;5051894;28;20043;-57
2022/01/07 10:13:06;;;;;;;4.25;1.92;;;20.90;44.20;;;;;;5052941;28;20590;-57
2022/01/07 10:15:41;;;;;;;2.50;1.80;;;20.90;44.20;;;;;;5052260;28;20107;-57
2022/01/07 10:18:12;;;;;;;5.50;1.80;;;20.90;44.20;;;;;;5056014;28;20087;-57
2022/01/07 10:20:46;;;;;;;6.75;2.15;;;21.00;44.30;;;;;;5057762;28;20051;-57
2022/01/07 10:23:18;;;;;;;4.18;1.55;;;21.00;44.40;;;;;;5057375;28;20048;-57
2022/01/07 10:25:45;;;;;;;3.53;1.88;;;21.00;44.30;;;;;;5039469;28;20171;-57
2022/01/07 10:28:16;;;;;;;3.55;1.90;;;21.00;44.30;;;;;;5057069;28;20044;-57
2022/01/07 10:30:44;;;;;;;3.83;1.75;;;21.00;44.20;;;;;;5090341;28;20050;-57
2022/01/07 10:33:22;;;;;;;3.50;1.40;;;21.00;44.10;;;;;;5056977;28;20040;-57
2022/01/07 10:35:50;;;;;;;3.03;1.58;;;21.00;44.00;;;;;;5056886;28;20048;-57
2022/01/07 10:38:17;;;;;;;2.78;1.50;;;21.00;44.00;;;;;;5056942;28;20136;-57
2022/01/07 10:40:43;;;;;;;3.38;1.52;;;21.00;44.10;;;;;;5056891;28;20053;-57
2022/01/07 10:43:20;;;;;;;4.70;1.77;;;21.00;44.20;;;;;;5056834;28;20207;-56
2022/01/07 10:45:54;;;;;;;3.30;1.88;;;21.00;44.20;;;;;;5057220;28;20037;-56
2022/01/07 10:48:23;;;;;;;5.30;1.50;;;21.00;44.30;;;;;;5056781;28;20036;-57
2022/01/07 10:50:50;;;;;;;13.23;2.38;;;21.00;44.20;;;;;;5056827;28;20041;-57
2022/01/07 10:53:27;;;;;;;8.80;2.00;;;21.10;44.30;;;;;;5055824;28;20085;-57
2022/01/07 10:55:57;;;;;;;4.30;1.73;;;21.10;45.00;;;;;;5056722;28;20048;-57
2022/01/07 10:58:23;;;;;;;3.22;1.80;;;21.10;44.30;;;;;;5057090;28;20088;-57
2022/01/07 11:00:49;;;;;;;5.07;1.60;;;21.10;44.30;;;;;;5056601;28;20043;-57
2022/01/07 11:03:14;;;;;;;2.50;1.58;;;21.10;44.30;;;;;;5055963;28;20045;-57
2022/01/07 11:05:41;;;;;;;3.28;1.60;;;21.10;44.30;;;;;;5052197;28;20108;-57
2022/01/07 11:08:07;;;;;;;3.85;1.33;;;21.10;44.30;;;;;;5055150;28;20048;-57
2022/01/07 11:10:34;;;;;;;2.40;1.52;;;21.10;44.30;;;;;;5088622;28;20060;-59
2022/01/07 11:13:00;;;;;;;2.75;1.73;;;21.10;44.30;;;;;;5056274;28;20045;-57
2022/01/07 11:15:25;;;;;;;4.13;1.42;;;21.10;44.40;;;;;;5056248;28;20033;-56
2022/01/07 11:17:51;;;;;;;3.85;1.75;;;21.10;44.40;;;;;;5056772;28;20102;-56
2022/01/07 11:20:24;;;;;;;3.50;1.73;;;21.10;44.40;;;;;;5088692;28;20056;-56
2022/01/07 11:22:50;;;;;;;3.67;1.80;;;21.10;44.40;;;;;;5056120;28;20384;-57
2022/01/07 11:25:16;;;;;;;2.90;1.65;;;21.10;44.30;;;;;;5056078;28;20048;-57
2022/01/07 11:27:56;;;;;;;4.35;1.98;;;21.10;44.30;;;;;;5055746;28;20041;-56
2022/01/07 11:30:26;;;;;;;4.72;1.80;;;21.20;44.30;;;;;;5056118;28;20063;-56
2022/01/07 11:32:52;;;;;;;3.35;1.73;;;21.10;44.20;;;;;;5055964;28;20044;-56
2022/01/07 11:35:18;;;;;;;2.90;1.40;;;21.10;44.10;;;;;;5056408;28;20073;-56
2022/01/07 11:37:52;;;;;;;4.35;1.50;;;21.10;44.20;;;;;;5054731;28;20087;-56
2022/01/07 11:40:31;;;;;;;4.10;1.73;;;21.20;44.30;;;;;;5055876;28;20465;-56
2022/01/07 11:43:18;;;;;;;2.22;1.42;;;21.20;44.40;;;;;;5055048;28;20041;-56
2022/01/07 11:45:45;;;;;;;3.90;1.40;;;21.10;44.40;;;;;;5051799;28;20080;-56
2022/01/07 11:48:13;;;;;;;3.88;1.38;;;21.20;44.40;;;;;;5055757;28;20044;-56
2022/01/07 11:50:55;;;;;;;3.65;1.38;;;21.10;45.10;;;;;;5055573;28;20044;-56
2022/01/07 11:53:47;;;;;;;7.63;1.52;;;21.10;44.40;;;;;;5055603;28;20382;-56
2022/01/07 11:56:19;;;;;;;4.45;1.00;;;21.20;44.50;;;;;;5055395;28;20055;-56
2022/01/07 11:58:55;;;;;;;4.85;1.73;;;21.20;45.30;;;;;;5056015;28;20076;-56
2022/01/07 12:01:24;;;;;;;1.85;1.20;;;21.10;44.50;;;;;;5055955;28;20041;-56
2022/01/07 12:03:53;;;;;;;2.38;1.02;;;21.20;44.50;;;;;;5055315;28;20048;-57
2022/01/07 12:06:24;;;;;;;4.20;1.42;;;21.20;44.50;;;;;;5055326;28;20037;-56
2022/01/07 12:09:09;;;;;;;3.08;0.82;;;21.20;44.50;;;;;;5087937;28;20083;-57
2022/01/07 12:11:42;;;;;;;3.85;1.25;;;21.20;44.80;;;;;;5055934;28;20048;-57
2022/01/07 12:14:16;;;;;;;4.65;1.27;;;21.20;45.60;;;;;;5055089;28;20126;-57
2022/01/07 12:16:44;;;;;;;3.85;1.25;;;21.20;45.70;;;;;;5055086;28;20460;-57
2022/01/07 12:19:18;;;;;;;2.00;1.02;;;21.20;45.80;;;;;;5055788;28;20068;-57
2022/01/07 12:21:49;;;;;;;4.30;1.10;;;21.20;45.60;;;;;;5057567;28;20037;-58
2022/01/07 12:24:21;;;;;;;3.55;0.98;;;21.20;45.20;;;;;;5067917;28;20372;-57
2022/01/07 12:27:00;;;;;;;2.30;0.90;;;21.20;45.00;;;;;;5074329;28;20076;-57
2022/01/07 12:29:30;;;;;;;3.38;0.80;;;21.20;44.90;;;;;;5075459;28;20085;-57
2022/01/07 12:31:56;;;;;;;3.53;1.20;;;21.20;44.70;;;;;;5073552;28;20040;-57
2022/01/07 12:34:26;;;;;;;6.55;1.00;;;21.20;44.70;;;;;;5075157;28;20364;-57
2022/01/07 12:36:57;;;;;;;4.75;1.08;;;21.20;44.70;;;;;;5074670;28;20440;-57
2022/01/07 12:39:25;;;;;;;;;;;21.20;44.60;;;;;;5073804;28;20484;-57
2022/01/07 12:41:55;;;;;;;2.70;1.02;;;21.20;44.50;;;;;;5074238;28;20425;-57
2022/01/07 12:44:22;;;;;;;1.30;0.70;;;21.20;44.60;;;;;;5074449;28;20044;-57
2022/01/07 12:46:55;;;;;;;4.85;1.00;;;21.20;44.50;;;;;;5062173;28;20155;-56
2022/01/07 12:49:45;;;;;;;1.75;0.75;;;21.30;44.40;;;;;;5054423;28;20057;-57
2022/01/07 12:52:31;;;;;;;3.58;0.90;;;21.30;44.40;;;;;;5053384;28;20047;-57
2022/01/07 12:54:59;;;;;;;3.35;1.10;;;21.30;44.50;;;;;;5054329;28;20041;-57
2022/01/07 12:57:30;;;;;;;2.67;0.80;;;21.30;44.50;;;;;;5054367;28;20049;-57
2022/01/07 13:00:18;;;;;;;2.70;0.90;;;21.30;44.60;;;;;;5054142;28;20488;-56